Time;durP1;ratioP1;P1;durP2;ratioP2;P2;SDS_P1;SDS_P2;PMS_P1;PMS_P2;Temp;Humidity;BMP_temperature;BMP_pressure;BME280_temperature;BME280_humidity;BME280_pressure;Samples;Min_cycle;Max_cycle;Signal;HPM_P1;HPM_P2
2021/05/11 00:01:53;;;;;;;939.87;878.80;;;16.40;99.90;;;;;;5059509;28;20542;-83
2021/05/11 00:04:20;;;;;;;896.17;839.20;;;16.40;99.90;;;;;;5059415;28;20590;-83
2021/05/11 00:06:47;;;;;;;871.37;816.03;;;16.40;99.90;;;;;;5058349;28;20985;-83
2021/05/11 00:09:13;;;;;;;861.63;807.10;;;16.40;99.90;;;;;;5058590;28;20460;-83
2021/05/11 00:11:40;;;;;;;791.63;743.93;;;16.40;99.90;;;;;;5058711;28;20460;-83
2021/05/11 00:14:06;;;;;;;701.30;660.40;;;16.40;99.90;;;;;;5059297;28;21036;-83
2021/05/11 00:16:34;;;;;;;656.70;619.40;;;16.40;99.90;;;;;;5060099;28;20476;-83
2021/05/11 00:19:04;;;;;;;383.47;359.67;;;16.30;99.90;;;;;;5040206;28;20512;-82
2021/05/11 00:21:30;;;;;;;529.57;502.03;;;16.30;99.90;;;;;;5050744;28;20533;-82
2021/05/11 00:23:57;;;;;;;497.33;469.47;;;16.30;99.90;;;;;;5060070;28;20444;-82
2021/05/11 00:26:24;;;;;;;548.63;518.33;;;16.30;99.90;;;;;;5058372;28;20456;-82
2021/05/11 00:28:50;;;;;;;521.03;494.13;;;16.30;99.90;;;;;;5059600;28;20555;-82
2021/05/11 00:31:16;;;;;;;302.57;285.70;;;16.20;99.90;;;;;;5057289;28;20551;-82
2021/05/11 00:33:43;;;;;;;248.13;232.60;;;16.20;99.90;;;;;;5057396;28;20479;-82
2021/05/11 00:36:09;;;;;;;285.27;269.57;;;16.10;99.90;;;;;;5055953;28;20554;-82
2021/05/11 00:38:35;;;;;;;239.83;224.63;;;16.10;99.90;;;;;;5058090;28;20460;-82
2021/05/11 00:41:02;;;;;;;280.23;264.03;;;16.00;99.90;;;;;;5058949;28;20435;-81
2021/05/11 00:43:29;;;;;;;239.30;224.63;;;15.90;99.90;;;;;;5058413;28;20503;-82
2021/05/11 00:45:57;;;;;;;159.93;148.20;;;15.80;99.90;;;;;;5058505;28;20455;-83
2021/05/11 00:48:23;;;;;;;142.80;131.30;;;15.70;99.90;;;;;;5058581;28;20452;-82
2021/05/11 00:50:49;;;;;;;190.13;178.17;;;15.60;99.90;;;;;;5058040;28;20483;-82
2021/05/11 00:53:16;;;;;;;162.40;150.90;;;15.60;99.90;;;;;;5058078;28;20484;-83
2021/05/11 00:55:44;;;;;;;181.50;169.97;;;15.50;99.90;;;;;;5056215;28;20494;-83
2021/05/11 00:58:12;;;;;;;180.97;169.37;;;15.50;99.90;;;;;;5057108;28;20941;-83
2021/05/11 01:00:38;;;;;;;172.83;161.70;;;15.50;99.90;;;;;;5056225;28;21000;-82
2021/05/11 01:03:05;;;;;;;141.90;131.67;;;15.50;99.90;;;;;;5056870;28;20496;-82
2021/05/11 01:05:31;;;;;;;198.90;186.90;;;15.40;99.90;;;;;;5057203;28;20448;-82
2021/05/11 01:07:57;;;;;;;92.87;84.87;;;15.40;99.90;;;;;;5056871;28;20524;-82
2021/05/11 01:10:24;;;;;;;95.67;87.67;;;15.40;99.90;;;;;;5057157;28;20452;-82
2021/05/11 01:12:50;;;;;;;86.70;79.17;;;15.40;99.90;;;;;;5056576;28;20480;-82
2021/05/11 01:15:18;;;;;;;78.93;71.50;;;15.40;99.90;;;;;;5056615;28;20892;-82
2021/05/11 01:17:50;;;;;;;94.60;86.40;;;15.40;99.90;;;;;;5055878;28;20866;-82
2021/05/11 01:20:25;;;;;;;132.50;123.30;;;15.30;99.90;;;;;;5057458;28;20460;-82
2021/05/11 01:23:10;;;;;;;103.63;95.27;;;15.30;99.90;;;;;;5055844;28;21018;-82
2021/05/11 01:25:37;;;;;;;193.43;181.33;;;15.30;99.90;;;;;;5056579;28;20456;-82
2021/05/11 01:28:11;;;;;;;46.17;29.87;;;15.30;99.90;;;;;;5056781;28;20527;-82
2021/05/11 01:45:01;;;;;;;40.93;20.20;;;15.20;99.90;;;;;;5056993;28;20427;-82
2021/05/11 01:47:46;;;;;;;42.43;22.33;;;15.20;99.90;;;;;;5055860;28;20456;-83
2021/05/11 01:50:18;;;;;;;70.03;63.50;;;15.20;99.90;;;;;;5058211;28;20474;-82
2021/05/11 01:53:03;;;;;;;39.13;23.03;;;15.10;99.90;;;;;;5057748;28;20558;-83
2021/05/11 01:55:39;;;;;;;38.60;15.47;;;15.20;99.90;;;;;;5058242;28;20581;-82
2021/05/11 02:22:52;;;;;;;33.47;15.20;;;15.10;99.90;;;;;;5062528;28;20471;-82
2021/05/11 02:25:20;;;;;;;34.50;13.67;;;15.10;99.90;;;;;;5069462;28;20438;-84
2021/05/11 02:27:48;;;;;;;30.73;8.90;;;15.10;99.90;;;;;;5078967;28;20444;-83
2021/05/11 02:30:15;;;;;;;30.60;7.57;;;15.10;99.90;;;;;;5079440;28;20475;-82
2021/05/11 02:32:43;;;;;;;40.17;23.73;;;15.10;99.90;;;;;;5077764;28;20482;-82
2021/05/11 02:35:10;;;;;;;27.43;7.07;;;15.10;99.90;;;;;;5078645;28;20505;-83
2021/05/11 02:37:37;;;;;;;33.23;12.13;;;15.10;99.90;;;;;;5078599;28;20440;-81
2021/05/11 02:40:05;;;;;;;29.00;8.37;;;15.10;99.90;;;;;;5078095;28;20456;-82
2021/05/11 02:42:32;;;;;;;31.27;8.13;;;15.10;99.90;;;;;;5070811;28;20468;-82
2021/05/11 02:44:59;;;;;;;30.77;8.20;;;15.10;99.90;;;;;;5061191;28;20530;-83
2021/05/11 02:47:25;;;;;;;29.37;8.23;;;15.10;99.90;;;;;;5061757;28;21033;-83
2021/05/11 02:49:52;;;;;;;30.67;6.67;;;15.10;99.90;;;;;;5061203;28;20490;-83
2021/05/11 02:52:18;;;;;;;28.27;6.23;;;15.10;99.90;;;;;;5060677;28;20451;-83
2021/05/11 02:54:45;;;;;;;29.90;9.40;;;15.10;99.90;;;;;;5060504;28;20942;-83
2021/05/11 02:57:11;;;;;;;32.13;9.47;;;15.10;99.90;;;;;;5062010;28;20969;-84
2021/05/11 02:59:39;;;;;;;34.53;11.77;;;15.10;99.90;;;;;;5061764;28;20495;-82
2021/05/11 03:02:08;;;;;;;28.37;7.70;;;15.10;99.90;;;;;;5059793;28;20475;-83
2021/05/11 03:04:34;;;;;;;27.03;6.03;;;15.00;99.90;;;;;;5061507;28;20452;-83
2021/05/11 03:07:00;;;;;;;25.47;5.10;;;15.10;99.90;;;;;;5062325;28;20451;-82
2021/05/11 03:09:27;;;;;;;25.53;6.93;;;15.10;99.90;;;;;;5061353;28;20538;-82
2021/05/11 03:11:55;;;;;;;27.20;5.50;;;15.10;99.90;;;;;;5059919;28;20566;-83
2021/05/11 03:14:22;;;;;;;24.90;5.50;;;15.20;99.90;;;;;;5060705;28;20487;-83
2021/05/11 03:16:49;;;;;;;26.10;6.43;;;15.10;99.90;;;;;;5060741;28;20454;-83
2021/05/11 03:19:16;;;;;;;47.07;35.47;;;15.20;99.90;;;;;;5061130;28;20467;-83
2021/05/11 03:21:43;;;;;;;24.40;4.87;;;15.10;99.90;;;;;;5059890;28;20547;-83
2021/05/11 03:24:10;;;;;;;31.73;12.60;;;15.10;99.90;;;;;;5060545;28;20452;-83
2021/05/11 03:26:37;;;;;;;33.37;8.70;;;15.10;99.90;;;;;;5061312;28;20865;-83
2021/05/11 03:29:04;;;;;;;65.50;59.17;;;15.00;99.90;;;;;;5062335;28;20474;-82
2021/05/11 03:31:30;;;;;;;25.40;5.43;;;15.00;99.90;;;;;;5063167;28;20519;-83
2021/05/11 03:33:56;;;;;;;29.20;7.60;;;14.90;99.90;;;;;;5064758;28;20462;-83
2021/05/11 03:36:24;;;;;;;29.87;9.83;;;14.90;99.90;;;;;;5064299;28;20456;-83
2021/05/11 03:38:52;;;;;;;40.40;25.00;;;14.90;99.90;;;;;;5062748;28;20936;-83
2021/05/11 03:41:21;;;;;;;34.90;21.20;;;14.90;99.90;;;;;;5063987;28;20517;-83
2021/05/11 03:43:52;;;;;;;101.03;92.67;;;14.90;99.90;;;;;;5064007;28;20857;-83
2021/05/11 03:46:18;;;;;;;38.07;25.67;;;14.90;99.90;;;;;;5063273;28;20447;-83
2021/05/11 03:48:44;;;;;;;30.40;14.60;;;14.80;99.90;;;;;;5062798;28;20487;-83
2021/05/11 03:51:11;;;;;;;32.10;15.87;;;14.80;99.90;;;;;;5061760;28;20543;-82
2021/05/11 03:53:38;;;;;;;28.80;8.13;;;14.90;99.90;;;;;;5064527;28;20483;-84
2021/05/11 03:56:05;;;;;;;27.97;9.97;;;14.80;99.90;;;;;;5062242;28;20860;-83
2021/05/11 03:58:31;;;;;;;26.97;9.17;;;14.90;99.90;;;;;;5061335;28;20452;-83
2021/05/11 04:00:58;;;;;;;28.30;8.93;;;14.90;99.90;;;;;;5060460;28;20545;-84
2021/05/11 04:03:24;;;;;;;24.67;6.97;;;14.80;99.90;;;;;;5061070;28;20535;-83
2021/05/11 04:05:52;;;;;;;23.90;7.80;;;14.80;99.90;;;;;;5060369;28;20444;-84
2021/05/11 04:08:25;;;;;;;27.13;10.83;;;14.80;99.90;;;;;;5060123;28;20464;-84
2021/05/11 04:10:57;;;;;;;42.97;33.50;;;14.90;99.90;;;;;;5059947;28;20459;-84
2021/05/11 04:13:48;;;;;;;28.90;10.67;;;14.80;99.90;;;;;;5059743;28;20488;-84
2021/05/11 04:16:21;;;;;;;31.97;18.50;;;14.80;99.90;;;;;;5059135;28;20894;-83
2021/05/11 04:18:47;;;;;;;28.20;11.30;;;14.90;99.90;;;;;;5060081;28;20475;-84
2021/05/11 04:21:14;;;;;;;27.63;12.03;;;14.90;99.90;;;;;;5060544;28;20478;-84
2021/05/11 04:23:40;;;;;;;44.17;35.67;;;14.90;99.90;;;;;;5060296;28;20476;-84
2021/05/11 04:26:07;;;;;;;29.37;14.37;;;15.00;99.90;;;;;;5059912;28;20451;-84
2021/05/11 04:28:33;;;;;;;29.77;14.33;;;14.90;99.90;;;;;;5060367;28;20455;-84
2021/05/11 04:31:00;;;;;;;29.00;12.93;;;15.00;99.90;;;;;;5059832;28;20878;-84
2021/05/11 04:33:26;;;;;;;30.63;15.93;;;15.00;99.90;;;;;;5058849;28;20468;-83
2021/05/11 04:35:53;;;;;;;30.87;14.17;;;15.00;99.90;;;;;;5058151;28;20488;-84
2021/05/11 04:38:21;;;;;;;32.43;18.63;;;15.10;99.90;;;;;;5058906;28;20463;-84
2021/05/11 04:40:48;;;;;;;26.40;8.30;;;15.10;99.90;;;;;;5053081;28;20498;-85
2021/05/11 04:43:15;;;;;;;50.20;34.53;;;15.10;99.90;;;;;;5056221;28;20475;-84
2021/05/11 04:45:42;;;;;;;27.80;7.60;;;15.10;99.90;;;;;;5055150;28;20455;-85
2021/05/11 04:48:08;;;;;;;35.67;16.90;;;15.10;99.90;;;;;;5058762;28;20459;-84
2021/05/11 04:50:35;;;;;;;35.40;13.77;;;15.20;99.90;;;;;;5041843;28;20449;-84
2021/05/11 04:53:02;;;;;;;32.97;11.30;;;15.20;99.90;;;;;;5055158;28;20456;-83
2021/05/11 04:55:29;;;;;;;30.27;8.53;;;15.20;99.90;;;;;;5060263;28;20641;-84
2021/05/11 04:57:55;;;;;;;93.50;85.33;;;15.10;99.90;;;;;;5060001;28;20455;-83
2021/05/11 05:00:23;;;;;;;35.33;14.37;;;15.10;99.90;;;;;;5055821;28;20540;-83
2021/05/11 05:02:50;;;;;;;36.10;12.13;;;15.10;99.90;;;;;;5052249;28;20468;-82
2021/05/11 05:05:16;;;;;;;30.83;8.83;;;15.10;99.90;;;;;;5059518;28;20449;-83
2021/05/11 05:07:43;;;;;;;39.30;18.07;;;15.10;99.90;;;;;;5056961;28;20480;-83
2021/05/11 05:10:12;;;;;;;37.80;13.67;;;15.20;99.90;;;;;;5058409;28;20460;-82
2021/05/11 05:12:38;;;;;;;72.27;65.30;;;15.20;99.90;;;;;;5077327;23;20495;-84
2021/05/11 05:15:06;;;;;;;38.37;12.70;;;15.20;99.90;;;;;;5043360;28;20571;-84
2021/05/11 05:17:33;;;;;;;58.17;50.17;;;15.30;99.90;;;;;;5042472;28;20539;-84
2021/05/11 05:20:00;;;;;;;149.63;138.47;;;15.30;99.90;;;;;;5042335;28;20449;-84
2021/05/11 05:22:26;;;;;;;56.30;45.00;;;15.30;99.90;;;;;;5043509;28;20511;-84
2021/05/11 05:24:55;;;;;;;48.43;27.13;;;15.40;99.90;;;;;;5043756;28;20476;-84
2021/05/11 05:27:22;;;;;;;37.93;15.43;;;15.40;99.90;;;;;;5042988;28;20445;-84
2021/05/11 05:29:49;;;;;;;43.03;22.43;;;15.50;99.90;;;;;;5041437;28;20461;-84
2021/05/11 05:32:16;;;;;;;76.27;68.97;;;15.60;99.90;;;;;;5041119;28;20931;-84
2021/05/11 05:34:43;;;;;;;212.80;198.70;;;15.70;99.90;;;;;;5042911;28;20472;-85
2021/05/11 05:37:10;;;;;;;35.33;14.03;;;15.60;99.90;;;;;;5043370;28;20513;-85
2021/05/11 05:39:40;;;;;;;50.53;45.13;;;15.70;99.90;;;;;;5043591;28;20453;-85
2021/05/11 05:42:06;;;;;;;44.30;34.43;;;15.70;99.90;;;;;;5041958;28;20487;-85
2021/05/11 05:44:33;;;;;;;30.27;11.00;;;15.80;99.90;;;;;;5043043;28;20456;-85
2021/05/11 05:46:59;;;;;;;55.00;47.47;;;15.70;99.90;;;;;;5039279;28;20452;-85
2021/05/11 05:49:30;;;;;;;31.63;9.93;;;15.80;99.90;;;;;;5030176;28;20488;-85
2021/05/11 05:52:02;;;;;;;29.20;10.77;;;16.00;99.90;;;;;;5037398;28;20492;-85
2021/05/11 05:54:28;;;;;;;30.13;10.87;;;16.20;99.90;;;;;;5039669;28;20544;-86
2021/05/11 05:56:54;;;;;;;50.70;42.80;;;16.30;99.90;;;;;;5030006;28;20894;-85
2021/05/11 05:59:21;;;;;;;29.50;8.67;;;16.30;99.90;;;;;;5042315;28;20461;-85
2021/05/11 06:01:49;;;;;;;47.60;28.90;;;16.40;99.90;;;;;;5043373;28;20451;-85
2021/05/11 06:04:20;;;;;;;36.57;17.40;;;16.40;99.90;;;;;;5040477;28;20540;-85
2021/05/11 06:06:48;;;;;;;64.87;58.07;;;16.40;99.90;;;;;;5041073;28;21282;-85
2021/05/11 06:09:20;;;;;;;42.63;29.90;;;16.20;99.90;;;;;;5036100;28;20472;-86
2021/05/11 06:11:50;;;;;;;49.73;42.90;;;16.30;99.90;;;;;;5025492;28;20472;-86
2021/05/11 06:14:24;;;;;;;42.20;32.17;;;16.10;99.90;;;;;;5033835;28;20484;-84
2021/05/11 06:19:45;;;;;;;32.37;9.07;;;16.00;99.90;;;;;;5008660;28;20547;-83
2021/05/11 06:22:12;;;;;;;28.03;8.90;;;16.20;99.90;;;;;;5034069;28;20970;-84
2021/05/11 06:24:40;;;;;;;32.70;12.37;;;16.20;99.90;;;;;;5034941;28;20444;-84
2021/05/11 06:27:08;;;;;;;30.30;11.97;;;16.20;99.90;;;;;;5033828;28;20457;-85
2021/05/11 06:29:37;;;;;;;28.03;8.43;;;16.40;99.90;;;;;;5030966;28;20543;-84
2021/05/11 06:32:05;;;;;;;27.40;7.63;;;16.70;99.90;;;;;;5032827;28;20461;-85
2021/05/11 06:34:31;;;;;;;29.30;7.97;;;17.00;99.90;;;;;;5025390;28;20918;-84
2021/05/11 06:36:58;;;;;;;29.57;11.17;;;17.20;99.90;;;;;;5031941;28;20502;-84
2021/05/11 06:39:24;;;;;;;33.33;13.77;;;17.40;99.90;;;;;;5036622;28;20465;-82
2021/05/11 06:41:54;;;;;;;36.90;16.10;;;17.50;99.90;;;;;;5035334;28;20470;-83
2021/05/11 06:44:28;;;;;;;57.47;46.13;;;17.50;99.90;;;;;;5034462;28;20499;-85
2021/05/11 06:52:53;;;;;;;43.93;35.83;;;17.40;99.90;;;;;;5032796;28;20552;-83
2021/05/11 06:55:20;;;;;;;27.00;8.63;;;17.20;99.90;;;;;;5035973;28;20877;-84
2021/05/11 06:57:48;;;;;;;51.57;40.53;;;17.30;99.90;;;;;;5038465;28;20500;-83
2021/05/11 07:00:15;;;;;;;38.70;25.77;;;17.50;99.90;;;;;;5039349;28;20452;-84
2021/05/11 07:02:41;;;;;;;33.03;13.20;;;17.50;99.90;;;;;;5036285;28;20469;-82
2021/05/11 07:05:09;;;;;;;29.30;11.17;;;17.30;99.90;;;;;;5031896;28;20555;-85
2021/05/11 07:07:36;;;;;;;36.00;17.60;;;17.40;99.90;;;;;;5038885;28;20449;-85
2021/05/11 07:10:11;;;;;;;27.97;12.17;;;17.40;99.90;;;;;;5033780;28;20491;-85
2021/05/11 07:15:23;;;;;;;35.53;16.23;;;17.50;99.90;;;;;;5029117;28;20487;-85
2021/05/11 07:17:49;;;;;;;31.77;14.60;;;17.50;99.90;;;;;;5034958;28;20457;-83
2021/05/11 07:20:15;;;;;;;32.57;12.97;;;17.40;99.90;;;;;;5037460;28;20963;-83
2021/05/11 07:22:42;;;;;;;30.80;12.70;;;17.60;99.90;;;;;;5035166;28;20477;-84
2021/05/11 07:25:12;;;;;;;28.67;9.00;;;17.80;99.90;;;;;;5035653;28;20440;-85
2021/05/11 07:28:17;;;;;;;33.70;16.10;;;17.90;99.90;;;;;;5038205;28;20473;-83
2021/05/11 07:30:45;;;;;;;31.37;10.77;;;18.10;99.90;;;;;;5036771;28;20456;-84
2021/05/11 07:33:11;;;;;;;28.07;11.27;;;18.30;99.90;;;;;;5037617;28;20507;-86
2021/05/11 07:35:40;;;;;;;35.37;17.13;;;18.40;99.90;;;;;;5037688;28;20480;-84
2021/05/11 07:38:07;;;;;;;34.80;16.37;;;18.60;99.90;;;;;;5038148;28;20535;-84
2021/05/11 07:40:34;;;;;;;32.50;13.50;;;18.60;99.90;;;;;;5038623;28;20456;-85
2021/05/11 07:43:00;;;;;;;29.00;11.77;;;18.80;99.90;;;;;;5036005;28;20469;-85
2021/05/11 07:45:32;;;;;;;35.53;15.60;;;19.00;99.90;;;;;;5034152;28;20508;-85
2021/05/11 08:01:54;;;;;;;33.83;12.67;;;20.20;99.90;;;;;;5028818;28;20531;-84
2021/05/11 08:02:38;;;;;;;50.30;42.80;;;21.30;99.90;;;;;;5039658;28;20436;-85
2021/05/11 08:05:13;;;;;;;38.33;17.50;;;21.60;99.90;;;;;;5037637;28;20445;-85
2021/05/11 08:10:35;;;;;;;43.13;24.90;;;21.80;99.90;;;;;;5036885;28;20436;-84
2021/05/11 08:16:04;;;;;;;38.50;17.80;;;22.20;99.90;;;;;;4978859;28;20474;-85
2021/05/11 08:18:36;;;;;;;52.80;42.00;;;22.70;99.90;;;;;;4978851;28;20917;-85
2021/05/11 08:29:29;;;;;;;56.73;45.40;;;23.40;99.90;;;;;;5033912;28;20436;-84
2021/05/11 08:31:55;;;;;;;279.90;261.00;;;23.30;99.90;;;;;;5037072;28;20928;-86
2021/05/11 08:34:21;;;;;;;267.43;251.00;;;23.30;99.90;;;;;;5045688;28;20535;-86
2021/05/11 08:36:48;;;;;;;86.00;78.30;;;22.80;99.90;;;;;;5044706;28;20449;-85
2021/05/11 08:39:15;;;;;;;292.63;275.43;;;22.80;99.90;;;;;;5029677;28;20476;-85
2021/05/11 08:41:41;;;;;;;433.47;410.57;;;22.60;99.90;;;;;;5036931;28;20446;-86
2021/05/11 08:44:14;;;;;;;217.37;204.37;;;22.20;99.90;;;;;;5033289;28;20480;-85
2021/05/11 08:46:41;;;;;;;67.47;60.60;;;21.60;99.90;;;;;;5029718;28;20538;-87
2021/05/11 08:49:11;;;;;;;99.17;90.93;;;20.90;99.90;;;;;;5032819;28;20478;-86
2021/05/11 08:51:48;;;;;;;47.40;30.60;;;20.40;99.90;;;;;;5036311;28;20453;-84
2021/05/11 08:54:31;;;;;;;58.90;51.27;;;20.30;99.90;;;;;;5034262;28;20488;-86
2021/05/11 09:00:06;;;;;;;39.27;15.10;;;19.90;99.90;;;;;;5009173;28;20437;-86
2021/05/11 09:05:32;;;;;;;33.57;12.60;;;19.70;99.90;;;;;;5023907;28;20424;-86
2021/05/11 09:08:09;;;;;;;38.83;17.20;;;19.80;99.90;;;;;;5032264;28;20459;-86
2021/05/11 09:24:57;;;;;;;37.83;15.17;;;19.60;99.90;;;;;;4977245;28;20522;-87
2021/05/11 09:27:41;;;;;;;86.07;79.07;;;19.90;99.90;;;;;;4977471;28;20541;-85
2021/05/11 09:30:16;;;;;;;34.87;12.43;;;20.10;99.90;;;;;;5018000;28;20452;-86
2021/05/11 10:37:24;;;;;;;37.57;14.07;;;18.80;99.90;;;;;;5046831;28;20475;-83
2021/05/11 10:40:30;;;;;;;47.00;26.50;;;18.70;99.90;;;;;;5045320;28;20456;-86
2021/05/11 10:48:26;;;;;;;35.87;12.17;;;18.00;99.90;;;;;;5045935;28;20445;-85
2021/05/11 10:50:55;;;;;;;37.03;15.27;;;17.90;99.90;;;;;;5046059;28;20461;-84
2021/05/11 10:53:48;;;;;;;35.77;12.07;;;17.80;99.90;;;;;;5046057;28;20536;-84
2021/05/11 10:57:06;;;;;;;35.10;12.53;;;17.80;99.90;;;;;;5046150;28;20502;-85
2021/05/11 10:59:42;;;;;;;43.07;23.20;;;17.80;99.90;;;;;;5046770;28;20457;-84
2021/05/11 11:05:40;;;;;;;35.50;9.70;;;17.50;99.90;;;;;;5047686;28;20995;-84
2021/05/11 11:08:33;;;;;;;34.40;13.63;;;17.50;99.90;;;;;;5041468;28;20459;-84
2021/05/11 11:11:12;;;;;;;31.80;11.60;;;17.50;99.90;;;;;;5031162;28;20461;-87
2021/05/11 11:13:39;;;;;;;25.47;6.30;;;17.70;99.90;;;;;;5041223;28;20533;-85
2021/05/11 11:16:07;;;;;;;26.20;5.40;;;17.90;99.90;;;;;;5036479;28;20488;-85
2021/05/11 11:18:34;;;;;;;27.33;7.57;;;18.00;99.90;;;;;;5042166;28;20560;-85
2021/05/11 11:21:19;;;;;;;26.60;7.47;;;18.30;99.90;;;;;;5033347;28;20516;-84
2021/05/11 11:23:47;;;;;;;34.27;11.93;;;18.60;99.90;;;;;;5042622;28;20472;-84
2021/05/11 11:26:14;;;;;;;31.93;13.37;;;18.70;99.90;;;;;;5041213;28;20445;-85
2021/05/11 11:28:41;;;;;;;32.43;11.20;;;18.60;99.90;;;;;;5032746;28;20541;-84
2021/05/11 11:31:24;;;;;;;43.30;30.50;;;18.50;99.90;;;;;;5040862;28;20532;-84
2021/05/11 11:33:51;;;;;;;64.33;58.23;;;18.30;99.90;;;;;;5038086;28;20618;-84
2021/05/11 11:36:34;;;;;;;31.40;11.17;;;18.10;99.90;;;;;;5040740;28;20480;-84
2021/05/11 11:39:03;;;;;;;61.90;55.43;;;17.90;99.90;;;;;;5042254;28;20563;-85
2021/05/11 11:41:30;;;;;;;36.63;16.77;;;17.70;99.90;;;;;;5023834;28;20453;-83
2021/05/11 11:43:56;;;;;;;29.40;9.50;;;17.60;99.90;;;;;;5035118;28;20896;-86
2021/05/11 11:46:27;;;;;;;38.30;11.63;;;17.50;99.90;;;;;;5043876;28;20536;-85
2021/05/11 11:49:03;;;;;;;38.20;21.10;;;17.40;99.90;;;;;;5043695;28;20481;-84
2021/05/11 11:51:32;;;;;;;46.43;31.07;;;17.50;99.90;;;;;;5043747;28;21046;-85
2021/05/11 11:54:15;;;;;;;45.80;23.37;;;17.40;99.90;;;;;;5044827;28;20888;-83
2021/05/11 11:59:27;;;;;;;38.87;15.40;;;17.20;99.90;;;;;;5046009;28;20447;-84
2021/05/11 12:01:58;;;;;;;32.33;11.83;;;17.30;99.90;;;;;;5045698;28;20453;-85
2021/05/11 12:04:24;;;;;;;37.33;16.93;;;17.40;99.90;;;;;;5053869;28;20424;-84
2021/05/11 12:06:51;;;;;;;26.30;6.40;;;17.50;99.90;;;;;;5042786;28;20452;-84
2021/05/11 12:09:19;;;;;;;52.13;41.30;;;17.60;99.90;;;;;;5043002;28;20461;-84
2021/05/11 12:11:47;;;;;;;33.27;12.63;;;17.70;99.90;;;;;;5040577;28;20489;-84
2021/05/11 12:14:15;;;;;;;47.27;30.63;;;17.70;99.90;;;;;;5038701;28;21077;-85
2021/05/11 12:16:42;;;;;;;34.47;13.30;;;17.70;99.90;;;;;;5042206;28;20484;-84
2021/05/11 12:19:15;;;;;;;50.53;36.27;;;17.70;99.90;;;;;;5040046;28;20449;-86
2021/05/11 12:21:53;;;;;;;36.83;17.20;;;17.70;99.90;;;;;;5039721;28;20522;-84
2021/05/11 12:24:20;;;;;;;34.00;11.27;;;17.70;99.90;;;;;;5033249;28;20476;-85
2021/05/11 12:26:48;;;;;;;29.40;9.20;;;17.70;99.90;;;;;;5038589;28;20512;-84
2021/05/11 12:29:16;;;;;;;35.77;17.90;;;17.70;99.90;;;;;;5037636;28;20895;-86
2021/05/11 12:31:43;;;;;;;23.30;6.23;;;17.70;99.90;;;;;;5041511;28;20933;-85
2021/05/11 12:34:11;;;;;;;43.70;38.23;;;17.70;99.90;;;;;;5038261;28;20941;-87
2021/05/11 12:36:45;;;;;;;31.80;8.97;;;17.50;99.90;;;;;;5033426;28;20923;-87
2021/05/11 12:39:37;;;;;;;31.50;12.37;;;17.50;99.90;;;;;;5037692;28;20457;-87
2021/05/11 12:42:16;;;;;;;39.83;22.93;;;17.40;99.90;;;;;;5025381;28;20491;-87
2021/05/11 12:44:43;;;;;;;38.83;21.00;;;17.40;99.90;;;;;;5024490;28;20919;-87
2021/05/11 12:47:09;;;;;;;41.23;21.53;;;17.40;99.90;;;;;;5027727;28;20822;-86
2021/05/11 12:49:36;;;;;;;44.37;30.17;;;17.30;99.90;;;;;;5026221;28;20893;-87
2021/05/11 12:52:08;;;;;;;32.20;13.17;;;17.20;99.90;;;;;;5026537;28;20865;-87
2021/05/11 12:54:38;;;;;;;41.70;23.43;;;17.20;99.90;;;;;;5030592;28;20466;-86
2021/05/11 12:57:19;;;;;;;29.37;6.13;;;17.30;99.90;;;;;;5031016;28;20476;-87
2021/05/11 12:59:56;;;;;;;32.20;12.30;;;17.30;99.90;;;;;;5015326;28;20527;-86
2021/05/11 13:02:40;;;;;;;49.50;43.30;;;17.40;99.90;;;;;;5029905;28;20468;-85
2021/05/11 13:13:44;;;;;;;29.50;9.03;;;17.10;99.90;;;;;;5026076;28;20886;-88
2021/05/11 13:16:19;;;;;;;40.93;24.80;;;17.20;99.90;;;;;;5028170;28;20991;-88
2021/05/11 13:21:42;;;;;;;41.23;27.70;;;17.20;99.90;;;;;;5023740;28;20448;-86
2021/05/11 13:26:57;;;;;;;32.77;13.70;;;17.50;99.90;;;;;;5026439;28;20456;-86
2021/05/11 13:29:35;;;;;;;41.40;25.93;;;17.60;99.90;;;;;;5033035;28;20526;-87
2021/05/11 13:32:05;;;;;;;28.00;11.13;;;17.50;99.90;;;;;;5038111;28;20514;-86
2021/05/11 13:34:34;;;;;;;26.30;8.80;;;17.50;99.90;;;;;;5039628;28;20449;-86
2021/05/11 13:37:01;;;;;;;28.00;9.20;;;17.50;99.90;;;;;;5042198;28;20582;-85
2021/05/11 13:39:27;;;;;;;24.70;6.90;;;17.60;99.90;;;;;;5043356;28;20453;-86
2021/05/11 13:41:54;;;;;;;26.67;10.10;;;17.70;99.90;;;;;;5043597;28;20453;-86
2021/05/11 13:44:21;;;;;;;44.50;32.80;;;17.90;99.90;;;;;;5039383;28;20513;-86
2021/05/11 13:46:48;;;;;;;25.07;6.97;;;18.00;99.90;;;;;;5034096;28;20492;-86
2021/05/11 13:49:17;;;;;;;26.00;10.27;;;18.10;99.90;;;;;;5013023;28;20488;-86
2021/05/11 13:51:44;;;;;;;29.30;12.90;;;18.20;99.90;;;;;;5040044;28;20491;-88
2021/05/11 13:54:12;;;;;;;24.80;6.90;;;18.40;99.90;;;;;;5041049;28;20472;-86
2021/05/11 13:56:53;;;;;;;28.40;12.00;;;18.40;99.90;;;;;;5035710;28;20505;-85
2021/05/11 14:04:45;;;;;;;27.60;8.67;;;18.60;99.90;;;;;;5033334;28;20456;-83
2021/05/11 14:07:11;;;;;;;32.20;12.70;;;18.70;99.90;;;;;;5070260;23;20563;-84
2021/05/11 14:09:38;;;;;;;30.93;10.47;;;18.60;99.90;;;;;;5069570;28;20452;-85
2021/05/11 14:12:05;;;;;;;64.63;58.57;;;18.70;99.90;;;;;;5068109;28;20447;-86
2021/05/11 14:14:31;;;;;;;68.20;62.00;;;18.70;99.90;;;;;;5068233;28;20464;-87
2021/05/11 14:16:58;;;;;;;38.20;31.37;;;18.50;99.90;;;;;;5070636;28;20547;-85
2021/05/11 14:19:25;;;;;;;33.20;17.83;;;18.60;99.90;;;;;;5068806;28;21042;-86
2021/05/11 14:21:53;;;;;;;37.77;23.50;;;18.40;99.90;;;;;;5070603;28;20456;-85
2021/05/11 14:24:19;;;;;;;49.80;44.50;;;18.40;99.90;;;;;;5074796;28;20472;-83
2021/05/11 14:26:47;;;;;;;38.53;25.00;;;18.20;99.90;;;;;;5069598;28;20536;-83
2021/05/11 14:29:13;;;;;;;30.80;11.13;;;17.90;99.90;;;;;;5073419;28;20456;-85
2021/05/11 14:31:39;;;;;;;56.30;50.63;;;17.90;99.90;;;;;;5072671;28;20479;-85
2021/05/11 14:34:08;;;;;;;40.13;27.23;;;17.80;99.90;;;;;;5073458;28;20916;-84
2021/05/11 14:36:34;;;;;;;46.97;34.43;;;17.70;99.90;;;;;;5067518;28;20483;-85
2021/05/11 14:39:03;;;;;;;29.37;11.13;;;17.60;99.90;;;;;;5063791;28;20502;-85
2021/05/11 14:41:29;;;;;;;30.00;13.70;;;17.50;99.90;;;;;;5067680;28;20503;-84
2021/05/11 14:43:56;;;;;;;39.60;26.20;;;17.40;99.90;;;;;;5054572;28;20452;-85
2021/05/11 14:46:22;;;;;;;51.53;43.93;;;17.30;99.90;;;;;;5066509;28;20533;-84
2021/05/11 14:48:50;;;;;;;30.83;12.30;;;17.30;99.90;;;;;;5064498;28;20526;-85
2021/05/11 14:51:16;;;;;;;34.33;27.23;;;17.70;99.90;;;;;;5060499;28;20440;-86
2021/05/11 14:53:43;;;;;;;39.50;33.63;;;18.00;99.90;;;;;;5073392;28;20478;-87
2021/05/11 14:56:12;;;;;;;39.00;32.27;;;17.90;99.90;;;;;;5069231;28;20503;-83
2021/05/11 14:58:38;;;;;;;38.53;29.27;;;18.00;99.90;;;;;;5068386;28;20509;-84
2021/05/11 15:01:05;;;;;;;36.60;23.43;;;18.20;99.90;;;;;;5067265;28;20981;-84
2021/05/11 15:03:32;;;;;;;41.37;26.50;;;18.20;99.90;;;;;;5067845;28;20459;-85
2021/05/11 15:05:58;;;;;;;50.17;45.37;;;18.20;99.90;;;;;;5067276;28;20512;-84
2021/05/11 15:08:24;;;;;;;31.90;16.03;;;18.20;99.90;;;;;;5060719;28;20463;-84
2021/05/11 15:10:51;;;;;;;37.97;30.47;;;18.10;99.90;;;;;;5063151;28;20508;-84
2021/05/11 15:13:19;;;;;;;31.23;15.70;;;18.00;99.90;;;;;;5065517;28;20549;-84
2021/05/11 15:15:49;;;;;;;71.50;65.43;;;18.00;99.90;;;;;;5064539;28;20498;-85
2021/05/11 15:18:16;;;;;;;36.63;24.03;;;17.80;99.90;;;;;;5067764;28;20529;-84
2021/05/11 15:20:42;;;;;;;30.33;15.13;;;17.90;99.90;;;;;;5064794;28;21039;-84
2021/05/11 15:23:09;;;;;;;26.37;8.13;;;17.90;99.90;;;;;;5066202;28;20955;-83
2021/05/11 15:25:35;;;;;;;36.50;25.20;;;18.00;99.90;;;;;;5069113;28;20452;-83
2021/05/11 15:28:03;;;;;;;27.67;12.63;;;17.90;99.90;;;;;;5068121;28;20495;-84
2021/05/11 15:30:32;;;;;;;39.23;29.33;;;17.70;99.90;;;;;;5066980;28;20452;-84
2021/05/11 15:32:58;;;;;;;30.83;17.50;;;17.40;99.90;;;;;;5063241;28;20456;-83
2021/05/11 15:35:26;;;;;;;38.80;26.47;;;17.50;99.90;;;;;;5056920;28;20479;-82
2021/05/11 15:37:56;;;;;;;36.30;22.33;;;17.50;99.90;;;;;;5058476;28;20949;-82
2021/05/11 15:40:24;;;;;;;29.93;11.07;;;17.60;99.90;;;;;;5050024;28;20839;-82
2021/05/11 15:42:52;;;;;;;35.77;18.13;;;17.60;99.90;;;;;;5062540;28;20455;-82
2021/05/11 15:45:19;;;;;;;403.47;217.70;;;17.60;99.90;;;;;;5057746;28;20448;-83
2021/05/11 15:47:52;;;;;;;51.30;33.10;;;17.40;99.90;;;;;;5057025;28;20504;-83
2021/05/11 15:50:27;;;;;;;52.00;44.40;;;17.30;99.90;;;;;;5069138;28;20459;-83